createdAt,value
2023-03-22T00:01:17.737Z,9.94
2023-03-22T00:03:44.679Z,9.92
2023-03-22T00:06:11.677Z,9.90
2023-03-22T00:08:38.610Z,9.90
2023-03-22T00:11:05.521Z,9.89
2023-03-22T00:13:33.893Z,9.87
2023-03-22T00:16:02.298Z,9.87
2023-03-22T00:18:29.223Z,9.86
2023-03-22T00:20:56.137Z,9.85
2023-03-22T00:23:23.092Z,9.86
2023-03-22T00:25:50.008Z,9.84
2023-03-22T00:28:16.933Z,9.84
2023-03-22T00:30:43.825Z,9.83
2023-03-22T00:33:12.378Z,9.82
2023-03-22T00:35:39.346Z,9.82
2023-03-22T00:38:06.369Z,9.80
2023-03-22T00:40:33.337Z,9.79
2023-03-22T00:43:00.258Z,9.78
2023-03-22T00:45:27.232Z,9.78
2023-03-22T00:47:54.183Z,9.77
2023-03-22T00:50:21.164Z,9.76
2023-03-22T00:52:48.103Z,9.76
2023-03-22T00:55:15.013Z,9.74
2023-03-22T00:57:41.972Z,9.74
2023-03-22T01:00:08.920Z,9.72
2023-03-22T01:02:35.886Z,9.70
2023-03-22T01:05:02.853Z,9.70
2023-03-22T01:07:29.773Z,9.71
2023-03-22T01:09:56.693Z,9.68
2023-03-22T01:12:23.619Z,9.68
2023-03-22T01:14:50.620Z,9.67
2023-03-22T01:17:17.536Z,9.66
2023-03-22T01:19:44.503Z,9.65
2023-03-22T01:22:11.468Z,9.64
2023-03-22T01:24:38.437Z,9.63
2023-03-22T01:27:05.378Z,9.63
2023-03-22T01:29:32.311Z,9.62
2023-03-22T01:31:59.274Z,9.61
2023-03-22T01:34:26.240Z,9.60
2023-03-22T01:36:53.198Z,9.59
2023-03-22T01:39:20.183Z,9.58
2023-03-22T01:41:47.242Z,9.57
2023-03-22T01:44:14.205Z,9.56
2023-03-22T01:46:41.213Z,9.55
2023-03-22T01:49:08.266Z,9.53
2023-03-22T01:51:35.247Z,9.51
2023-03-22T01:54:02.360Z,9.49
2023-03-22T01:56:29.319Z,9.47
2023-03-22T01:58:56.276Z,9.44
2023-03-22T02:01:23.199Z,9.41
2023-03-22T02:03:50.136Z,9.39
2023-03-22T02:06:17.109Z,9.37
2023-03-22T02:08:44.037Z,9.35
2023-03-22T02:11:11.011Z,9.32
2023-03-22T02:13:37.953Z,9.30
2023-03-22T02:16:04.927Z,9.26
2023-03-22T02:18:33.039Z,9.26
2023-03-22T02:21:02.304Z,9.23
2023-03-22T02:23:29.524Z,9.22
2023-03-22T02:25:56.438Z,9.19
2023-03-22T02:28:23.386Z,9.17
2023-03-22T02:30:50.405Z,9.15
2023-03-22T02:33:17.414Z,9.12
2023-03-22T02:35:44.415Z,9.09
2023-03-22T02:38:11.358Z,9.07
2023-03-22T02:40:38.729Z,9.05
2023-03-22T02:43:05.796Z,9.03
2023-03-22T02:45:32.756Z,9.01
2023-03-22T02:47:59.672Z,9.00
2023-03-22T02:50:26.649Z,8.96
2023-03-22T02:52:53.583Z,8.95
2023-03-22T02:55:20.500Z,8.93
2023-03-22T02:57:48.885Z,8.91
2023-03-22T03:00:15.819Z,8.90
2023-03-22T03:02:42.765Z,8.89
2023-03-22T03:05:09.710Z,8.87
2023-03-22T03:07:36.641Z,8.85
2023-03-22T03:10:03.579Z,8.84
2023-03-22T03:12:30.488Z,8.83
2023-03-22T03:14:57.430Z,8.82
2023-03-22T03:17:24.351Z,8.80
2023-03-22T03:19:51.301Z,8.78
2023-03-22T03:22:18.239Z,8.77
2023-03-22T03:24:45.208Z,8.75
2023-03-22T03:27:12.120Z,8.74
2023-03-22T03:29:39.075Z,8.73
2023-03-22T03:32:06.027Z,8.70
2023-03-22T03:34:32.969Z,8.70
2023-03-22T03:36:59.923Z,8.67
2023-03-22T03:39:26.840Z,8.64
2023-03-22T03:41:53.914Z,8.62
2023-03-22T03:44:20.844Z,8.59
2023-03-22T03:46:47.786Z,8.57
2023-03-22T03:49:14.759Z,8.56
2023-03-22T03:51:41.877Z,8.50
2023-03-22T03:54:08.818Z,8.47
2023-03-22T03:56:35.716Z,8.44
2023-03-22T03:59:02.625Z,8.41
2023-03-22T04:01:29.547Z,8.37
2023-03-22T04:03:56.505Z,8.34
2023-03-22T04:06:23.433Z,8.29
2023-03-22T04:08:51.472Z,8.25
2023-03-22T04:11:18.373Z,8.21
2023-03-22T04:13:45.349Z,8.17
2023-03-22T04:16:12.286Z,8.13
2023-03-22T04:18:39.262Z,8.09
2023-03-22T04:21:06.154Z,8.03
2023-03-22T04:23:33.149Z,8.02
2023-03-22T04:26:01.425Z,7.98
2023-03-22T04:28:28.367Z,7.92
2023-03-22T04:30:55.307Z,7.89
2023-03-22T04:33:22.216Z,7.84
2023-03-22T04:35:49.173Z,7.79
2023-03-22T04:38:16.104Z,7.75
2023-03-22T04:40:43.070Z,7.70
2023-03-22T04:43:11.597Z,7.66
2023-03-22T04:45:40.120Z,7.62
2023-03-22T04:48:07.141Z,7.59
2023-03-22T04:50:34.086Z,7.54
2023-03-22T04:53:01.054Z,7.50
2023-03-22T04:55:27.949Z,7.46
2023-03-22T04:57:54.963Z,7.42
2023-03-22T05:00:21.918Z,7.39
2023-03-22T05:02:48.899Z,7.35
2023-03-22T05:05:15.848Z,7.31
2023-03-22T05:07:42.806Z,7.28
2023-03-22T05:10:09.736Z,7.23
2023-03-22T05:12:36.709Z,7.19
2023-03-22T05:15:03.658Z,7.15
2023-03-22T05:17:30.647Z,7.11
2023-03-22T05:19:57.631Z,7.08
2023-03-22T05:22:24.572Z,7.04
2023-03-22T05:24:51.559Z,6.99
2023-03-22T05:27:18.513Z,6.97
2023-03-22T05:29:45.457Z,6.92
2023-03-22T05:32:15.215Z,6.89
2023-03-22T05:34:42.167Z,6.85
2023-03-22T05:37:09.106Z,6.82
2023-03-22T05:39:37.120Z,6.80
2023-03-22T05:42:04.099Z,6.77
2023-03-22T05:44:31.067Z,6.75
2023-03-22T05:46:59.044Z,6.74
2023-03-22T05:49:26.079Z,6.71
2023-03-22T05:51:53.026Z,6.70
2023-03-22T05:54:19.955Z,6.69
2023-03-22T05:56:46.922Z,6.67
2023-03-22T05:59:15.204Z,6.66
2023-03-22T06:01:42.188Z,6.64
2023-03-22T06:04:09.209Z,6.64
2023-03-22T06:06:36.177Z,6.63
2023-03-22T06:09:15.944Z,6.63
2023-03-22T06:11:43.968Z,6.62
2023-03-22T06:14:10.953Z,6.61
2023-03-22T06:16:38.057Z,6.61
2023-03-22T06:19:05.018Z,6.61
2023-03-22T06:21:31.967Z,6.61
2023-03-22T06:23:58.918Z,6.63
2023-03-22T06:26:25.854Z,6.65
2023-03-22T06:28:52.809Z,6.66
2023-03-22T06:31:19.811Z,6.68
2023-03-22T06:33:46.817Z,6.70
2023-03-22T06:36:13.802Z,6.73
2023-03-22T06:38:40.722Z,6.76
2023-03-22T06:41:08.574Z,6.81
2023-03-22T06:43:35.508Z,6.84
2023-03-22T06:46:02.468Z,6.89
2023-03-22T06:48:29.513Z,6.94
2023-03-22T06:50:56.460Z,7.01
2023-03-22T06:53:23.387Z,7.08
2023-03-22T06:55:50.313Z,7.16
2023-03-22T06:58:17.253Z,7.24
2023-03-22T07:00:44.152Z,7.32
2023-03-22T07:03:11.078Z,7.40
2023-03-22T07:05:38.019Z,7.50
2023-03-22T07:08:04.951Z,7.58
2023-03-22T07:10:31.952Z,7.67
2023-03-22T07:12:58.949Z,7.77
2023-03-22T07:15:25.880Z,7.86
2023-03-22T07:17:53.184Z,7.98
2023-03-22T07:20:20.124Z,8.09
2023-03-22T07:22:47.075Z,8.19
2023-03-22T07:25:14.037Z,8.32
2023-03-22T07:27:40.992Z,8.45
2023-03-22T07:30:09.702Z,8.59
2023-03-22T07:32:36.913Z,8.74
2023-03-22T07:35:03.852Z,8.87
2023-03-22T07:37:30.766Z,9.03
2023-03-22T07:39:57.656Z,9.18
2023-03-22T07:42:24.578Z,9.36
2023-03-22T07:44:51.549Z,9.54
2023-03-22T07:47:27.175Z,9.73
2023-03-22T07:49:57.920Z,9.96
2023-03-22T07:52:24.876Z,10.17
2023-03-22T07:54:51.799Z,10.37
2023-03-22T07:57:18.746Z,10.61
2023-03-22T07:59:45.684Z,10.83
2023-03-22T08:02:12.650Z,11.09
2023-03-22T08:04:39.973Z,11.36
2023-03-22T08:07:06.884Z,11.62
2023-03-22T08:09:33.856Z,11.88
2023-03-22T08:12:00.765Z,12.13
2023-03-22T08:14:36.326Z,12.39
2023-03-22T08:17:03.823Z,12.68
2023-03-22T08:19:30.747Z,12.94
2023-03-22T08:21:57.724Z,13.23
2023-03-22T08:24:24.729Z,13.52
2023-03-22T08:26:51.710Z,13.81
2023-03-22T08:29:18.624Z,14.09
2023-03-22T08:31:45.620Z,14.35
2023-03-22T08:34:12.539Z,14.63
2023-03-22T08:36:39.464Z,14.91
2023-03-22T08:39:06.416Z,15.20
2023-03-22T08:41:33.365Z,15.44
2023-03-22T08:44:00.352Z,15.71
2023-03-22T08:46:27.337Z,15.98
2023-03-22T08:48:54.288Z,16.24
2023-03-22T08:51:21.213Z,16.51
2023-03-22T08:53:48.152Z,16.74
2023-03-22T08:56:15.091Z,16.98
2023-03-22T08:58:42.019Z,17.23
2023-03-22T09:01:09.054Z,17.49
2023-03-22T09:03:36.046Z,17.72
2023-03-22T09:06:03.001Z,17.95
2023-03-22T09:08:29.963Z,18.19
2023-03-22T09:10:56.952Z,18.41
2023-03-22T09:13:23.989Z,18.63
2023-03-22T09:15:50.946Z,18.86
2023-03-22T09:18:17.913Z,19.09
2023-03-22T09:20:44.823Z,19.30
2023-03-22T09:23:11.748Z,19.52
2023-03-22T09:25:38.834Z,19.72
2023-03-22T09:28:06.007Z,19.93
2023-03-22T09:30:32.988Z,20.14
2023-03-22T09:32:59.933Z,20.34
2023-03-22T09:35:26.912Z,20.54
2023-03-22T09:37:53.950Z,20.73
2023-03-22T09:40:20.851Z,20.91
2023-03-22T09:42:47.772Z,21.08
2023-03-22T09:45:14.793Z,21.25
2023-03-22T09:47:45.211Z,21.42
2023-03-22T09:50:12.442Z,21.58
2023-03-22T09:52:39.411Z,21.76
2023-03-22T09:55:06.336Z,21.91
2023-03-22T09:57:33.268Z,22.05
2023-03-22T10:00:00.217Z,22.20
2023-03-22T10:02:27.179Z,22.33
2023-03-22T10:04:54.138Z,22.46
2023-03-22T10:07:21.107Z,22.55
2023-03-22T10:09:48.006Z,22.67
2023-03-22T10:12:14.890Z,22.75
2023-03-22T10:14:41.924Z,22.79
2023-03-22T10:17:08.856Z,22.84
2023-03-22T10:19:40.064Z,22.86
2023-03-22T10:24:18.996Z,22.88
2023-03-22T10:25:11.384Z,22.88
2023-03-22T10:27:43.464Z,22.86
2023-03-22T10:30:38.983Z,22.80
2023-03-22T10:33:09.165Z,22.72
2023-03-22T10:35:36.163Z,22.66
2023-03-22T10:38:03.099Z,22.59
2023-03-22T10:40:30.072Z,22.51
2023-03-22T10:42:57.009Z,22.43
2023-03-22T10:45:23.958Z,22.32
2023-03-22T10:47:51.059Z,22.23
2023-03-22T10:50:18.061Z,22.11
2023-03-22T10:52:45.201Z,21.96
2023-03-22T10:55:12.134Z,21.81
2023-03-22T10:57:39.027Z,21.64
2023-03-22T11:00:05.964Z,21.48
2023-03-22T11:02:33.075Z,21.30
2023-03-22T11:05:00.406Z,21.13
2023-03-22T11:07:27.352Z,20.95
2023-03-22T11:09:54.285Z,20.84
2023-03-22T11:12:21.196Z,20.72
2023-03-22T11:14:48.114Z,20.55
2023-03-22T11:17:18.097Z,20.36
2023-03-22T11:19:45.055Z,20.19
2023-03-22T11:22:12.008Z,20.02
2023-03-22T11:24:38.955Z,19.92
2023-03-22T11:27:05.842Z,19.78
2023-03-22T11:29:32.808Z,19.67
2023-03-22T11:31:59.819Z,19.58
2023-03-22T11:34:26.837Z,19.50
2023-03-22T11:36:53.802Z,19.42
2023-03-22T11:39:20.719Z,19.34
2023-03-22T11:41:47.641Z,19.27
2023-03-22T11:44:14.709Z,19.19
2023-03-22T11:46:41.701Z,19.13
2023-03-22T12:07:09.715Z,18.50
2023-03-22T12:09:36.659Z,18.42
2023-03-22T12:12:03.569Z,18.36
2023-03-22T12:14:30.610Z,18.30
2023-03-22T12:16:57.540Z,18.27
2023-03-22T12:19:24.496Z,18.22
2023-03-22T12:21:51.451Z,18.19
2023-03-22T12:24:18.460Z,18.17
2023-03-22T12:26:45.421Z,18.14
2023-03-22T12:29:12.332Z,18.12
2023-03-22T12:31:39.407Z,18.06
2023-03-22T12:34:06.586Z,17.96
2023-03-22T12:36:33.550Z,17.88
2023-03-22T12:45:12.849Z,17.60
2023-03-22T12:47:39.828Z,17.56
2023-03-22T12:50:07.147Z,17.55
2023-03-22T12:52:44.660Z,17.54
2023-03-22T12:55:12.870Z,17.48
2023-03-22T12:57:39.803Z,17.43
2023-03-22T13:05:33.348Z,17.43
2023-03-22T13:08:36.954Z,17.41
2023-03-22T13:11:03.926Z,17.37
2023-03-22T13:13:30.867Z,17.34
2023-03-22T13:15:57.785Z,17.31
2023-03-22T13:18:33.029Z,17.29
2023-03-22T13:21:00.325Z,17.29
2023-03-22T13:23:27.317Z,17.27
2023-03-22T13:25:54.300Z,17.26
2023-03-22T13:28:21.234Z,17.21
2023-03-22T13:30:48.202Z,17.18
2023-03-22T13:33:15.155Z,17.13
2023-03-22T13:35:42.270Z,17.08
2023-03-22T13:38:09.444Z,17.02
2023-03-22T13:40:36.339Z,17.02
2023-03-22T13:43:03.284Z,17.02
2023-03-22T13:45:30.219Z,17.06
2023-03-22T13:47:57.358Z,17.09
2023-03-22T13:50:24.364Z,17.12
2023-03-22T13:52:51.348Z,17.16
2023-03-22T13:55:18.900Z,17.18
2023-03-22T13:57:45.948Z,17.19
2023-03-22T14:00:15.062Z,17.21
2023-03-22T14:02:42.857Z,17.22
2023-03-22T14:05:09.961Z,17.24
2023-03-22T14:07:36.889Z,17.22
2023-03-22T14:10:03.948Z,17.20
2023-03-22T14:12:30.867Z,17.19
2023-03-22T14:14:57.808Z,17.20
2023-03-22T14:17:24.807Z,17.23
2023-03-22T14:19:51.768Z,17.26
2023-03-22T14:53:55.294Z,17.49
2023-03-22T14:56:22.307Z,17.50
2023-03-22T14:58:49.341Z,17.53
2023-03-22T15:01:16.422Z,17.56
2023-03-22T15:03:44.825Z,17.59
2023-03-22T15:06:11.844Z,17.61
2023-03-22T15:08:38.946Z,17.65
2023-03-22T15:11:06.005Z,17.68
2023-03-22T15:13:33.024Z,17.69
2023-03-22T15:16:00.170Z,17.72
2023-03-22T15:18:27.542Z,17.72
2023-03-22T15:20:54.593Z,17.73
2023-03-22T15:23:21.639Z,17.73
2023-03-22T15:25:48.663Z,17.73
2023-03-22T15:28:15.796Z,17.74
2023-03-22T15:30:42.850Z,17.74
2023-03-22T15:33:09.873Z,17.77
2023-03-22T15:35:37.828Z,17.77
2023-03-22T15:38:06.175Z,17.78
2023-03-22T15:40:33.194Z,17.78
2023-03-22T15:43:00.250Z,17.78
2023-03-22T15:45:27.296Z,17.77
2023-03-22T15:47:54.432Z,17.74
2023-03-22T15:50:21.476Z,17.72
2023-03-22T15:52:49.693Z,17.69
2023-03-22T15:55:17.230Z,17.67
2023-03-22T15:57:44.919Z,17.65
2023-03-22T16:00:11.950Z,17.65
2023-03-22T16:02:38.962Z,17.66
2023-03-22T16:05:05.980Z,17.68
2023-03-22T16:07:33.012Z,17.69
2023-03-22T16:10:00.071Z,17.71
2023-03-22T16:12:27.174Z,17.73
2023-03-22T16:14:54.236Z,17.74
2023-03-22T16:17:21.273Z,17.77
2023-03-22T16:19:48.308Z,17.76
2023-03-22T16:22:15.584Z,17.77
2023-03-22T16:24:42.627Z,17.76
2023-03-22T16:27:09.664Z,17.76
2023-03-22T16:29:36.735Z,17.76
2023-03-22T16:32:03.762Z,17.74
2023-03-22T16:34:30.822Z,17.71
2023-03-22T16:37:01.510Z,17.68
2023-03-22T16:39:28.537Z,17.65
2023-03-22T16:41:55.552Z,17.61
2023-03-22T16:44:22.598Z,17.56
2023-03-22T16:46:49.672Z,17.52
2023-03-22T16:49:16.712Z,17.49
2023-03-22T16:51:43.767Z,17.43
2023-03-22T16:54:10.975Z,17.39
2023-03-22T16:56:38.028Z,17.36
2023-03-22T16:59:05.108Z,17.32
2023-03-22T17:01:32.179Z,17.30
2023-03-22T17:04:01.835Z,17.26
2023-03-22T17:06:28.894Z,17.21
2023-03-22T17:08:55.955Z,17.18
2023-03-22T17:11:23.129Z,17.14
2023-03-22T17:13:50.221Z,17.12
2023-03-22T17:16:17.359Z,17.07
2023-03-22T17:18:44.483Z,17.05
2023-03-22T17:21:14.481Z,17.02
2023-03-22T17:23:41.786Z,16.98
2023-03-22T17:26:08.869Z,16.94
2023-03-22T17:28:35.865Z,16.88
2023-03-22T17:31:02.957Z,16.82
2023-03-22T17:33:31.433Z,16.76
2023-03-22T17:35:58.587Z,16.71
2023-03-22T17:38:33.241Z,16.64
2023-03-22T17:41:06.406Z,16.57
2023-03-22T17:43:33.679Z,16.51
2023-03-22T17:46:33.177Z,16.42
2023-03-22T17:48:47.809Z,16.34
2023-03-22T17:51:14.813Z,16.23
2023-03-22T17:54:35.462Z,16.16
2023-03-22T17:57:03.609Z,16.04
2023-03-22T17:59:15.981Z,15.95
2023-03-22T18:01:43.254Z,15.86
2023-03-22T18:06:37.447Z,15.69
2023-03-22T18:09:04.590Z,15.62
2023-03-22T18:11:31.718Z,15.54
2023-03-22T18:14:13.781Z,15.43
2023-03-22T18:16:53.200Z,15.35
2023-03-22T18:19:21.148Z,15.25
2023-03-22T18:21:48.405Z,15.19
2023-03-22T18:24:15.466Z,15.09
2023-03-22T18:26:57.385Z,15.02
2023-03-22T18:29:29.476Z,14.94
2023-03-22T18:31:56.541Z,14.86
2023-03-22T18:34:23.856Z,14.76
2023-03-22T18:36:50.938Z,14.70
2023-03-22T18:40:04.543Z,14.63
2023-03-22T18:42:16.693Z,14.52
2023-03-22T18:44:46.670Z,14.43
2023-03-22T18:47:13.697Z,14.35
2023-03-22T18:49:40.778Z,14.27
2023-03-22T18:54:39.047Z,14.13
2023-03-22T18:57:07.179Z,14.05
2023-03-22T18:59:34.795Z,13.97
2023-03-22T19:02:09.998Z,13.90
2023-03-22T19:04:39.125Z,13.83
2023-03-22T19:07:06.279Z,13.76
2023-03-22T19:09:33.369Z,13.68
2023-03-22T19:12:00.471Z,13.61
2023-03-22T19:15:14.893Z,13.53
2023-03-22T19:17:14.670Z,13.45
2023-03-22T19:19:41.775Z,13.38
2023-03-22T19:22:08.842Z,13.31
2023-03-22T19:24:35.978Z,13.24
2023-03-22T19:27:16.856Z,13.17
2023-03-22T19:29:46.207Z,13.09
2023-03-22T19:32:13.324Z,13.02
2023-03-22T19:34:40.461Z,12.95
2023-03-22T19:37:07.604Z,12.90
2023-03-22T19:39:34.851Z,12.82
2023-03-22T19:42:06.544Z,12.75
2023-03-22T19:44:33.881Z,12.70
2023-03-22T19:47:00.985Z,12.63
2023-03-22T19:49:28.027Z,12.57
2023-03-22T19:51:55.096Z,12.51
2023-03-22T19:56:51.203Z,12.36
2023-03-22T19:59:18.653Z,12.31
2023-03-22T20:01:46.605Z,12.24
2023-03-22T20:04:13.632Z,12.19
2023-03-22T20:06:41.198Z,12.13
2023-03-22T20:09:08.209Z,12.06
2023-03-22T20:11:43.444Z,12.00
2023-03-22T20:14:10.765Z,11.94
2023-03-22T20:16:37.825Z,11.86
2023-03-22T20:19:04.853Z,11.79
2023-03-22T20:21:31.892Z,11.73
2023-03-22T20:23:59.010Z,11.66
2023-03-22T20:26:26.033Z,11.58
2023-03-22T20:28:53.107Z,11.53
2023-03-22T20:31:20.160Z,11.46
2023-03-22T20:33:47.218Z,11.39
2023-03-22T20:36:14.388Z,11.35
2023-03-22T20:38:41.416Z,11.30
2023-03-22T20:41:08.447Z,11.23
2023-03-22T20:43:35.445Z,11.18
2023-03-22T20:46:02.480Z,11.10
2023-03-22T20:48:29.505Z,11.04
2023-03-22T20:50:56.542Z,10.98
2023-03-22T20:53:23.542Z,10.92
2023-03-22T20:55:50.606Z,10.88
2023-03-22T20:58:17.642Z,10.83
2023-03-22T21:00:45.036Z,10.78
2023-03-22T21:03:12.213Z,10.74
2023-03-22T21:05:39.368Z,10.66
2023-03-22T21:08:06.639Z,10.63
2023-03-22T21:10:33.689Z,10.57
2023-03-22T21:13:00.918Z,10.51
2023-03-22T21:15:28.245Z,10.44
2023-03-22T21:17:55.349Z,10.38
2023-03-22T21:20:32.281Z,10.28
2023-03-22T21:22:59.834Z,10.21
2023-03-22T21:25:26.877Z,10.15
2023-03-22T21:27:53.926Z,10.11
2023-03-22T21:30:20.973Z,10.08
2023-03-22T21:32:47.996Z,10.04
2023-03-22T21:35:15.036Z,10.00
2023-03-22T21:37:42.127Z,9.97
2023-03-22T21:40:09.210Z,9.94
2023-03-22T21:42:36.976Z,9.92
2023-03-22T21:45:04.097Z,9.90
2023-03-22T21:47:31.193Z,9.87
2023-03-22T21:49:58.199Z,9.86
2023-03-22T21:52:25.517Z,9.83
2023-03-22T21:54:52.545Z,9.81
2023-03-22T21:57:20.884Z,9.79
2023-03-22T21:59:47.969Z,9.76
2023-03-22T22:02:15.059Z,9.74
2023-03-22T22:04:42.106Z,9.72
2023-03-22T22:07:09.233Z,9.69
2023-03-22T22:09:36.285Z,9.67
2023-03-22T22:12:05.559Z,9.64
2023-03-22T22:14:32.733Z,9.61
2023-03-22T22:16:59.974Z,9.60
2023-03-22T22:19:27.024Z,9.57
2023-03-22T22:21:57.016Z,9.55
2023-03-22T22:24:24.189Z,9.51
2023-03-22T22:26:51.401Z,9.49
2023-03-22T22:29:18.516Z,9.47
2023-03-22T22:31:45.794Z,9.43
2023-03-22T22:34:12.831Z,9.42
2023-03-22T22:36:39.883Z,9.38
2023-03-22T22:39:06.923Z,9.37
2023-03-22T22:41:34.153Z,9.36
2023-03-22T22:44:01.205Z,9.34
2023-03-22T22:46:28.308Z,9.31
2023-03-22T22:48:55.644Z,9.29
2023-03-22T22:51:22.758Z,9.26
2023-03-22T22:53:49.799Z,9.23
2023-03-22T22:56:17.156Z,9.22
2023-03-22T22:58:44.171Z,9.19
2023-03-22T23:01:11.220Z,9.16
2023-03-22T23:03:38.583Z,9.14
2023-03-22T23:06:06.425Z,9.13
2023-03-22T23:08:33.537Z,9.09
2023-03-22T23:11:00.584Z,9.08
2023-03-22T23:13:27.598Z,9.05
2023-03-22T23:15:54.989Z,9.03
2023-03-22T23:18:22.044Z,9.01
2023-03-22T23:20:49.078Z,8.98
2023-03-22T23:23:16.121Z,8.95
2023-03-22T23:25:43.187Z,8.94
2023-03-22T23:28:10.241Z,8.91
2023-03-22T23:30:37.265Z,8.88
2023-03-22T23:33:04.278Z,8.85
2023-03-22T23:35:31.458Z,8.84
2023-03-22T23:37:59.886Z,8.82
2023-03-22T23:40:27.432Z,8.81
2023-03-22T23:42:54.432Z,8.80
2023-03-22T23:45:21.687Z,8.76
2023-03-22T23:47:48.709Z,8.73
2023-03-22T23:50:15.749Z,8.70
2023-03-22T23:52:42.771Z,8.68
2023-03-22T23:55:09.797Z,8.67
2023-03-22T23:57:36.821Z,8.64
